Pittsburgh, Pennsylvania
Traffic Map
Current Weather Conditions
Pittsburgh, Pennsylvania
Scattered Clouds
Scattered Clouds
70°
Feels Like: 70°
Wind Chill: 70° Ceiling: Unl
Heat Index: 70° Visibility: 10mi
Dew Point: 63° Wind: 7mph
Humidity: 78% Direction: 340° (NNW)
Pressure: 30.06in Gusts: 0mph
Raw Report DataKAGC 280253Z 34006KT 10SM SCT035 SCT044 21/17 A3006 RMK AO2 SLP173 T02110172 53016
Traffic Incident Summary
Active as of:
Severity:
Category:
InformationThere was an issue retrieving the traffic information for this location. Please try a different location or try again shortly.
Advertisements
Track Severe Weather on mobile